Terminal Aerodrome Forecast
Issued by NWS

Current Version | Previous Version | Text Only | Print | Product List | Glossary On
Versions: 1 2 3 4 5 6 7 8 9 10 11 12 13 14 15 16 17 18
201
FTUS46 KLOX 202340
TAFLGB
TAF
KLGB 202340Z 2100/2124 19008KT P6SM SKC
     FM210100 29015KT P6SM SKC
     FM210500 30008KT P6SM SKC
     FM210900 VRB03KT P6SM SKC
     FM212000 29011KT P6SM SKC=

USA.gov is the U.S. government's official web portal to all federal, state and local government web resources and services.